Time;durP1;ratioP1;P1;durP2;ratioP2;P2;SDS_P1;SDS_P2;PMS_P1;PMS_P2;Temp;Humidity;BMP_temperature;BMP_pressure;BME280_temperature;BME280_humidity;BME280_pressure;Samples;Min_cycle;Max_cycle;Signal;HPM_P1;HPM_P2
2023/04/24 00:01:10;;;;;;;7.00;5.20;;;;;;;11.85;47.15;99647.66;105782;1253;72429;-74
2023/04/24 00:03:38;;;;;;;5.70;4.60;;;;;;;11.85;47.21;99647.34;105752;1253;74595;-76
2023/04/24 00:06:07;;;;;;;5.70;5.00;;;;;;;11.85;47.05;99646.04;105973;1253;61031;-75
2023/04/24 00:08:35;;;;;;;6.10;4.60;;;;;;;11.86;46.89;99648.09;105991;1257;61199;-77
2023/04/24 00:11:03;;;;;;;7.10;4.80;;;;;;;11.87;46.95;99645.70;105994;1259;75911;-77
2023/04/24 00:13:30;;;;;;;7.40;5.00;;;;;;;11.89;46.82;99647.25;106043;1257;71538;-77
2023/04/24 00:15:57;;;;;;;7.30;5.70;;;;;;;11.90;46.96;99643.40;105970;1257;73650;-79
2023/04/24 00:18:24;;;;;;;5.60;3.80;;;;;;;11.90;47.00;99644.30;105853;1257;60427;-78
2023/04/24 00:20:51;;;;;;;7.60;5.30;;;;;;;11.87;47.44;99639.42;106019;1256;61480;-78
2023/04/24 00:23:18;;;;;;;5.50;4.60;;;;;;;11.84;47.64;99639.59;105962;1251;74253;-77
2023/04/24 00:25:45;;;;;;;4.80;4.20;;;;;;;11.81;47.62;99642.61;105878;1254;71316;-77
2023/04/24 00:28:12;;;;;;;8.30;5.20;;;;;;;11.77;47.06;99641.30;105841;1259;74773;-75
2023/04/24 00:30:40;;;;;;;6.40;4.10;;;;;;;11.76;47.64;99639.82;105866;1254;60461;-77
2023/04/24 00:33:07;;;;;;;7.80;5.10;;;;;;;11.75;47.27;99641.77;105886;1259;62405;-76
2023/04/24 00:35:34;;;;;;;10.60;4.40;;;;;;;11.71;48.58;99639.48;105855;1258;74484;-79
2023/04/24 00:38:01;;;;;;;7.50;4.40;;;;;;;11.66;47.71;99641.03;106420;1251;72429;-75
2023/04/24 00:40:28;;;;;;;5.70;4.20;;;;;;;11.66;47.16;99643.33;106588;1256;74770;-75
2023/04/24 00:42:56;;;;;;;5.40;3.80;;;;;;;11.69;46.96;99644.90;106034;1254;61483;-79
2023/04/24 00:45:23;;;;;;;6.50;4.30;;;;;;;11.73;46.72;99644.59;105803;1251;61271;-78
2023/04/24 00:47:52;;;;;;;5.90;4.20;;;;;;;11.78;46.78;99647.76;105875;1256;73808;-74
2023/04/24 00:50:21;;;;;;;6.00;3.90;;;;;;;11.82;46.65;99643.89;106159;1257;71836;-75
2023/04/24 00:52:48;;;;;;;9.40;4.70;;;;;;;11.87;46.26;99647.49;105623;1257;71251;-76
2023/04/24 00:55:16;;;;;;;7.60;4.00;;;;;;;11.91;46.26;99643.59;106368;1259;60427;-75
2023/04/24 00:57:55;;;;;;;6.80;3.90;;;;;;;11.95;46.02;99637.34;106590;1254;61314;-77
2023/04/24 01:00:25;;;;;;;5.20;4.20;;;;;;;12.01;45.73;99636.95;106503;1251;76216;-76
2023/04/24 01:02:53;;;;;;;7.20;4.80;;;;;;;12.07;45.67;99640.60;106690;1254;72318;-76
2023/04/24 01:05:26;;;;;;;5.80;4.00;;;;;;;12.10;45.58;99636.93;106733;1255;75114;-75
2023/04/24 01:08:02;;;;;;;4.60;3.80;;;;;;;12.15;45.23;99639.25;106621;1258;61025;-74
2023/04/24 01:10:34;;;;;;;7.10;4.50;;;;;;;12.20;45.58;99637.77;106741;1260;60409;-76
2023/04/24 01:13:19;;;;;;;5.60;3.90;;;;;;;12.23;45.21;99636.30;106737;1252;74749;-80
2023/04/24 01:15:51;;;;;;;4.30;3.70;;;;;;;12.27;44.99;99633.25;106049;1259;71392;-78
2023/04/24 01:18:18;;;;;;;5.20;4.20;;;;;;;12.28;45.00;99628.43;105855;1259;74538;-79
2023/04/24 01:20:45;;;;;;;6.20;4.30;;;;;;;12.33;44.74;99633.77;105915;1259;61433;-79
2023/04/24 01:23:15;;;;;;;5.50;3.80;;;;;;;12.34;44.47;99633.38;106068;1259;60498;-77
2023/04/24 01:25:46;;;;;;;7.10;4.00;;;;;;;12.37;44.46;99633.45;105826;1252;75177;-78
2023/04/24 01:28:14;;;;;;;5.60;4.40;;;;;;;12.38;44.56;99634.66;105786;1257;72527;-77
2023/04/24 01:30:41;;;;;;;5.70;4.30;;;;;;;12.39;44.48;99630.30;105885;1256;73473;-76
2023/04/24 01:33:08;;;;;;;6.20;4.60;;;;;;;12.40;44.54;99630.42;105771;1258;60514;-76
2023/04/24 01:35:35;;;;;;;5.40;4.20;;;;;;;12.39;44.58;99631.27;105941;1258;62800;-79
2023/04/24 01:38:03;;;;;;;6.50;4.30;;;;;;;12.38;44.63;99631.17;106066;1254;74910;-80
2023/04/24 01:40:30;;;;;;;7.50;4.20;;;;;;;12.37;44.59;99627.30;105879;1254;70103;-78
2023/04/24 01:42:58;;;;;;;5.70;4.10;;;;;;;12.37;44.59;99624.88;105885;1254;73119;-75
2023/04/24 01:45:25;;;;;;;5.30;4.00;;;;;;;12.36;44.66;99625.03;105952;1257;62052;-76
2023/04/24 01:47:52;;;;;;;5.70;3.90;;;;;;;12.34;44.53;99623.26;106007;1257;60998;-77
2023/04/24 01:50:19;;;;;;;5.70;4.10;;;;;;;12.31;44.55;99618.83;106004;1258;75119;-76
2023/04/24 01:52:46;;;;;;;6.00;4.30;;;;;;;12.33;44.45;99621.06;105805;1259;71282;-76
2023/04/24 01:55:13;;;;;;;5.30;3.90;;;;;;;12.33;44.49;99616.67;105777;1262;73570;-76
2023/04/24 01:57:39;;;;;;;5.20;4.10;;;;;;;12.34;44.62;99616.77;105884;1258;62354;-75
2023/04/24 02:00:07;;;;;;;6.50;4.50;;;;;;;12.33;44.62;99612.90;105761;1256;61166;-77
2023/04/24 02:02:40;;;;;;;4.90;3.70;;;;;;;12.33;44.70;99611.18;105972;1254;75486;-78
2023/04/24 02:05:10;;;;;;;5.20;4.40;;;;;;;12.33;44.75;99609.09;105806;1261;70058;-75
2023/04/24 02:07:37;;;;;;;6.70;4.30;;;;;;;12.32;44.79;99609.66;106060;1254;74654;-74
2023/04/24 02:10:05;;;;;;;4.80;3.50;;;;;;;12.32;44.86;99606.09;106462;1251;62738;-74
2023/04/24 02:12:32;;;;;;;4.90;3.80;;;;;;;12.31;44.95;99605.67;106318;1254;61547;-75
2023/04/24 02:14:59;;;;;;;5.30;3.70;;;;;;;12.31;45.19;99606.63;106005;1257;75146;-76
2023/04/24 02:17:26;;;;;;;5.70;4.50;;;;;;;12.30;45.12;99605.10;105686;1260;70443;-75
2023/04/24 02:19:53;;;;;;;5.60;4.00;;;;;;;12.29;45.22;99602.80;105964;1252;74633;-76
2023/04/24 02:22:20;;;;;;;5.70;3.70;;;;;;;12.28;45.19;99601.44;105685;1257;61084;-74
2023/04/24 02:24:47;;;;;;;6.20;4.00;;;;;;;12.28;45.10;99598.10;105843;1253;60675;-76
2023/04/24 02:27:15;;;;;;;8.20;5.20;;;;;;;12.26;45.23;99598.98;105852;1254;75881;-75
2023/04/24 02:29:42;;;;;;;8.30;5.00;;;;;;;12.25;45.24;99596.64;106033;1256;70557;-74
2023/04/24 02:32:11;;;;;;;6.90;5.70;;;;;;;12.25;45.18;99595.05;105839;1255;74940;-72
2023/04/24 02:34:39;;;;;;;6.50;5.30;;;;;;;12.26;45.18;99595.16;105966;1259;61408;-73
2023/04/24 02:37:06;;;;;;;6.20;4.90;;;;;;;12.26;45.39;99598.70;106009;1256;61105;-76
2023/04/24 02:39:33;;;;;;;9.90;5.70;;;;;;;12.25;46.98;99598.28;106467;1254;75673;-76
2023/04/24 02:42:01;;;;;;;6.70;5.30;;;;;;;12.19;48.71;99602.03;107405;1254;72299;-76
2023/04/24 02:44:29;;;;;;;8.40;6.80;;;;;;;12.08;49.45;99600.81;106995;1254;71764;-77
2023/04/24 02:46:56;;;;;;;7.70;5.50;;;;;;;11.97;50.40;99599.85;107168;1258;61249;-76
2023/04/24 02:49:23;;;;;;;8.50;6.10;;;;;;;11.85;50.78;99597.10;106714;1253;62200;-78
2023/04/24 02:51:50;;;;;;;8.50;5.00;;;;;;;11.73;51.24;99595.27;107178;1253;74751;-76
2023/04/24 02:54:17;;;;;;;7.90;5.10;;;;;;;11.60;51.40;99597.89;106524;1254;72590;-75
2023/04/24 02:56:44;;;;;;;9.20;5.70;;;;;;;11.46;51.94;99596.34;105713;1257;70910;-77
2023/04/24 02:59:11;;;;;;;9.50;6.50;;;;;;;11.33;52.50;99593.67;105936;1261;60619;-76
2023/04/24 03:01:38;;;;;;;10.30;6.40;;;;;;;11.22;53.01;99595.83;105806;1259;62252;-77
2023/04/24 03:04:05;;;;;;;8.80;6.30;;;;;;;11.13;53.45;99591.77;105831;1255;73798;-72
2023/04/24 03:06:35;;;;;;;10.20;6.30;;;;;;;11.08;53.97;99589.64;105895;1256;69753;-77
2023/04/24 03:09:03;;;;;;;11.00;6.50;;;;;;;11.05;54.54;99588.99;105889;1254;74962;-75
2023/04/24 03:11:31;;;;;;;10.80;7.20;;;;;;;11.01;54.76;99591.52;105952;1257;62396;-76
2023/04/24 03:13:58;;;;;;;11.50;7.50;;;;;;;10.96;55.24;99589.61;105648;1255;61207;-73
2023/04/24 03:16:25;;;;;;;15.40;8.20;;;;;;;10.91;55.83;99589.09;105813;1257;73853;-74
2023/04/24 03:18:54;;;;;;;12.60;8.40;;;;;;;10.86;56.16;99591.32;105755;1257;72480;-75
2023/04/24 03:21:22;;;;;;;12.60;7.60;;;;;;;10.85;56.41;99591.75;105648;1260;72864;-74
2023/04/24 03:23:49;;;;;;;11.10;7.70;;;;;;;10.82;56.69;99589.56;105825;1254;62289;-73
2023/04/24 03:26:17;;;;;;;14.40;8.20;;;;;;;10.82;57.08;99590.27;106004;1256;62092;-74
2023/04/24 03:28:54;;;;;;;13.80;8.20;;;;;;;10.84;57.26;99595.92;105815;1260;74777;-75
2023/04/24 03:31:21;;;;;;;13.90;8.20;;;;;;;10.86;57.35;99595.38;105724;1254;70514;-74
2023/04/24 03:33:49;;;;;;;13.70;9.00;;;;;;;10.88;57.49;99598.50;105629;1260;72238;-74
2023/04/24 03:36:17;;;;;;;21.80;8.90;;;;;;;10.91;57.54;99601.52;105737;1259;60835;-74
2023/04/24 03:38:44;;;;;;;12.40;8.90;;;;;;;10.94;57.81;99600.24;106043;1254;60983;-75
2023/04/24 03:41:26;;;;;;;13.60;8.40;;;;;;;10.99;58.05;99602.05;107094;1257;76388;-77
2023/04/24 03:44:09;;;;;;;9.90;7.40;;;;;;;11.01;58.08;99603.08;106101;1260;70480;-75
2023/04/24 03:46:36;;;;;;;15.40;8.30;;;;;;;11.01;58.07;99605.13;105885;1257;73220;-74
2023/04/24 03:49:03;;;;;;;14.40;8.80;;;;;;;11.03;58.18;99606.59;105811;1257;62478;-76
2023/04/24 03:51:33;;;;;;;14.00;8.60;;;;;;;11.08;58.29;99610.73;105871;1254;60445;-76
2023/04/24 03:54:11;;;;;;;12.00;7.90;;;;;;;11.18;58.37;99612.58;105933;1257;74777;-74
2023/04/24 03:56:39;;;;;;;11.90;8.70;;;;;;;11.34;58.64;99611.80;105829;1254;70839;-75
2023/04/24 03:59:06;;;;;;;19.10;9.50;;;;;;;11.48;58.40;99611.32;105773;1259;72604;-75
2023/04/24 04:01:36;;;;;;;16.30;9.90;;;;;;;11.63;58.35;99614.77;105950;1254;62401;-75
2023/04/24 04:04:15;;;;;;;16.50;9.30;;;;;;;11.73;58.50;99608.57;105716;1253;61332;-76
2023/04/24 04:06:46;;;;;;;16.20;9.50;;;;;;;11.89;58.33;99612.95;105980;1253;76140;-76
2023/04/24 04:09:16;;;;;;;16.70;9.80;;;;;;;12.00;58.38;99612.08;105868;1254;71736;-74
2023/04/24 04:11:45;;;;;;;19.60;9.70;;;;;;;12.13;58.32;99614.23;105701;1255;72278;-74
2023/04/24 04:14:12;;;;;;;16.10;10.10;;;;;;;12.28;58.14;99614.14;105851;1259;62488;-76
2023/04/24 04:16:40;;;;;;;15.40;9.00;;;;;;;12.43;57.98;99611.62;106044;1254;62009;-75
2023/04/24 04:19:07;;;;;;;18.60;9.70;;;;;;;12.57;58.27;99615.41;105848;1253;76303;-77
2023/04/24 04:21:34;;;;;;;15.20;9.00;;;;;;;12.70;58.11;99618.30;105762;1254;68297;-75
2023/04/24 04:24:10;;;;;;;17.00;8.80;;;;;;;12.91;58.15;99619.36;105815;1260;75011;-75
2023/04/24 04:26:46;;;;;;;17.20;8.60;;;;;;;13.17;57.92;99621.12;105737;1261;61213;-77
2023/04/24 04:29:20;;;;;;;17.40;9.30;;;;;;;13.45;57.63;99616.98;105631;1260;62175;-73
2023/04/24 04:31:47;;;;;;;14.80;9.20;;;;;;;13.61;57.11;99618.24;105875;1259;75909;-74
2023/04/24 04:34:14;;;;;;;16.10;9.30;;;;;;;13.72;56.88;99622.77;106031;1254;71263;-73
2023/04/24 04:36:42;;;;;;;15.00;9.30;;;;;;;13.82;56.91;99622.12;105879;1255;74664;-75
2023/04/24 04:39:31;;;;;;;14.30;9.30;;;;;;;13.90;56.95;99625.65;105780;1254;60655;-75
2023/04/24 04:42:01;;;;;;;15.90;9.60;;;;;;;14.03;56.74;99622.55;105702;1254;60734;-77
2023/04/24 04:44:46;;;;;;;14.50;9.00;;;;;;;14.19;56.28;99616.59;105798;1260;76033;-75
2023/04/24 04:47:19;;;;;;;16.50;10.80;;;;;;;14.34;55.96;99619.25;105747;1254;71085;-77
2023/04/24 04:49:46;;;;;;;15.20;10.50;;;;;;;14.49;55.80;99616.33;105734;1254;72860;-74
2023/04/24 04:52:19;;;;;;;18.30;11.30;;;;;;;14.61;55.47;99618.33;105675;1251;222418;-74
2023/04/24 04:55:53;;;;;;;16.70;11.70;;;;;;;14.81;55.21;99617.04;102714;1295;600166;-74
2023/04/24 04:58:25;;;;;;;16.10;10.10;;;;;;;14.96;54.48;99617.70;105366;1262;61024;-75
2023/04/24 05:00:54;;;;;;;19.80;11.30;;;;;;;15.15;54.00;99616.95;105274;1265;61241;-74
2023/04/24 05:03:26;;;;;;;16.30;10.00;;;;;;;15.32;53.56;99611.85;105362;1264;74363;-74
2023/04/24 05:06:02;;;;;;;14.70;10.30;;;;;;;15.48;52.15;99611.44;105184;1264;72782;-74
2023/04/24 05:08:31;;;;;;;16.00;9.80;;;;;;;15.64;51.77;99610.51;105151;1260;164687;-74
2023/04/24 05:10:58;;;;;;;18.00;10.30;;;;;;;15.74;50.90;99609.81;105247;1260;62353;-72
2023/04/24 05:13:26;;;;;;;15.50;10.40;;;;;;;15.86;50.66;99608.20;105747;1257;62614;-75
2023/04/24 05:16:14;;;;;;;17.10;10.60;;;;;;;16.00;50.42;99608.42;105539;1263;71930;-74
2023/04/24 05:18:41;;;;;;;16.90;11.20;;;;;;;16.10;50.45;99604.54;105596;1259;71383;-75
2023/04/24 05:21:09;;;;;;;20.00;11.50;;;;;;;16.18;50.85;99605.55;105691;1260;74448;-76
2023/04/24 05:23:38;;;;;;;18.30;11.60;;;;;;;16.23;50.88;99609.05;105643;1257;62196;-77
2023/04/24 05:26:05;;;;;;;18.00;12.70;;;;;;;16.23;50.90;99607.52;105700;1257;61318;-75
2023/04/24 05:28:36;;;;;;;22.50;15.80;;;;;;;16.22;50.94;99603.81;105799;1265;71649;-80
2023/04/24 05:31:07;;;;;;;28.20;18.50;;;;;;;16.19;51.12;99605.07;105646;1257;71214;-79
2023/04/24 05:33:34;;;;;;;28.70;20.00;;;;;;;16.14;51.38;99604.54;105723;1257;73583;-79
2023/04/24 05:36:02;;;;;;;26.10;18.90;;;;;;;16.07;51.39;99606.48;105969;1257;60639;-80
2023/04/24 05:38:29;;;;;;;25.30;16.80;;;;;;;16.02;51.64;99607.52;106327;1257;61328;-81
2023/04/24 05:40:56;;;;;;;24.60;14.70;;;;;;;15.95;51.58;99607.27;105982;1257;75287;-82
2023/04/24 05:43:23;;;;;;;21.80;13.60;;;;;;;15.88;51.56;99605.65;105914;1256;72402;-78
2023/04/24 05:45:50;;;;;;;21.10;13.80;;;;;;;15.84;51.86;99604.58;105863;1261;74657;-77
2023/04/24 05:48:17;;;;;;;19.60;14.20;;;;;;;15.83;51.80;99605.23;105971;1256;61249;-78
2023/04/24 05:50:44;;;;;;;22.40;13.10;;;;;;;15.85;51.79;99604.83;105944;1254;62943;-78
2023/04/24 05:53:11;;;;;;;23.20;14.00;;;;;;;15.87;51.65;99598.65;106146;1254;75341;-80
2023/04/24 05:55:38;;;;;;;15.30;12.10;;;;;;;15.93;51.62;99594.82;105932;1254;70686;-76
2023/04/24 05:58:05;;;;;;;19.60;11.70;;;;;;;16.02;51.55;99595.02;105897;1256;72267;-73
2023/04/24 06:00:33;;;;;;;18.80;11.10;;;;;;;16.17;51.36;99594.96;105668;1254;60656;-73
2023/04/24 06:03:03;;;;;;;17.10;11.40;;;;;;;16.34;50.97;99599.27;105743;1259;60594;-71
2023/04/24 06:05:31;;;;;;;18.70;10.30;;;;;;;16.50;50.59;99597.25;105700;1259;74384;-72
2023/04/24 06:07:58;;;;;;;18.20;10.50;;;;;;;16.69;50.12;99596.78;105996;1259;69179;-75
2023/04/24 06:10:29;;;;;;;13.40;9.00;;;;;;;16.91;49.50;99602.43;105910;1257;74849;-72
2023/04/24 06:12:59;;;;;;;11.80;8.40;;;;;;;17.10;48.09;99602.80;105850;1255;60129;-72
2023/04/24 06:15:30;;;;;;;13.70;8.90;;;;;;;17.26;46.96;99598.58;105729;1260;61732;-72
2023/04/24 06:18:02;;;;;;;12.20;8.00;;;;;;;17.38;46.37;99598.76;105723;1260;75222;-74
2023/04/24 06:20:29;;;;;;;10.20;7.40;;;;;;;17.46;45.61;99600.33;105934;1257;69619;-73
2023/04/24 06:22:56;;;;;;;10.50;7.10;;;;;;;17.50;44.60;99596.13;105669;1261;74698;-74
2023/04/24 06:25:29;;;;;;;12.80;6.90;;;;;;;17.52;43.95;99596.85;105742;1255;62302;-73
2023/04/24 06:27:56;;;;;;;8.60;5.90;;;;;;;17.56;43.26;99598.44;105822;1254;61103;-74
2023/04/24 06:30:23;;;;;;;7.80;5.60;;;;;;;17.57;42.34;99598.17;106079;1254;74995;-73
2023/04/24 06:32:50;;;;;;;7.70;5.00;;;;;;;17.58;41.74;99593.46;106138;1257;72162;-72
2023/04/24 06:35:17;;;;;;;8.40;6.00;;;;;;;17.53;41.16;99595.90;106280;1253;74785;-73
2023/04/24 06:37:44;;;;;;;8.30;5.60;;;;;;;17.49;41.25;99593.81;106030;1254;62572;-73
2023/04/24 06:40:11;;;;;;;9.30;6.00;;;;;;;17.46;41.32;99592.68;106251;1254;62074;-73
2023/04/24 06:42:38;;;;;;;12.00;5.70;;;;;;;17.44;41.02;99588.35;106349;1254;72669;-71
2023/04/24 06:45:07;;;;;;;7.10;5.50;;;;;;;17.44;40.75;99594.52;106372;1254;71658;-73
2023/04/24 06:47:34;;;;;;;6.40;5.20;;;;;;;17.46;40.80;99593.09;106371;1257;71416;-72
2023/04/24 06:50:01;;;;;;;11.10;5.20;;;;;;;17.53;40.75;99593.41;106261;1254;61779;-71
2023/04/24 06:52:28;;;;;;;8.10;5.10;;;;;;;17.62;40.46;99596.49;106215;1254;62291;-72
2023/04/24 06:55:00;;;;;;;7.00;4.40;;;;;;;17.71;39.78;99596.80;106293;1254;75121;-73
2023/04/24 06:57:28;;;;;;;5.90;3.60;;;;;;;17.76;38.71;99597.10;106446;1257;72568;-72
2023/04/24 06:59:55;;;;;;;4.00;2.90;;;;;;;17.78;37.29;99600.23;106363;1254;72878;-75
2023/04/24 07:02:22;;;;;;;4.00;3.00;;;;;;;17.77;36.40;99595.39;106684;1254;59716;-72
2023/04/24 07:04:51;;;;;;;4.60;2.80;;;;;;;17.75;36.45;99594.63;107135;1254;60754;-71
2023/04/24 07:07:23;;;;;;;4.70;2.80;;;;;;;17.75;36.46;99594.25;106999;1254;71563;-75
2023/04/24 07:09:56;;;;;;;5.70;3.20;;;;;;;17.76;36.32;99599.08;106879;1254;72370;-71
2023/04/24 07:12:27;;;;;;;4.60;3.00;;;;;;;17.77;36.70;99595.35;106727;1256;73412;-74
2023/04/24 07:14:59;;;;;;;2.80;2.50;;;;;;;17.82;36.71;99608.25;107142;1254;60090;-72
2023/04/24 07:17:44;;;;;;;3.60;2.60;;;;;;;17.90;36.38;99607.34;106641;1254;61232;-70
2023/04/24 07:20:18;;;;;;;3.80;2.60;;;;;;;17.99;36.22;99608.65;106778;1256;75084;-75
2023/04/24 07:22:48;;;;;;;4.70;2.60;;;;;;;18.08;36.11;99605.21;106897;1253;69274;-74
2023/04/24 07:25:17;;;;;;;3.20;2.70;;;;;;;18.16;35.60;99608.45;107213;1257;74324;-74
2023/04/24 07:27:45;;;;;;;4.30;3.00;;;;;;;18.17;34.84;99605.79;107445;1261;60475;-77
2023/04/24 07:30:12;;;;;;;4.10;2.80;;;;;;;18.15;35.24;99600.52;107182;1256;61216;-76
2023/04/24 07:32:39;;;;;;;6.10;2.90;;;;;;;18.22;35.36;99602.89;107136;1255;73565;-73
2023/04/24 07:35:06;;;;;;;5.80;3.20;;;;;;;18.29;35.44;99598.77;107150;1254;71097;-74
2023/04/24 07:37:34;;;;;;;3.90;3.10;;;;;;;18.36;35.34;99602.26;107396;1257;73593;-76
2023/04/24 07:40:01;;;;;;;5.20;3.30;;;;;;;18.39;35.32;99602.39;107076;1258;59621;-76
2023/04/24 07:42:30;;;;;;;3.70;3.30;;;;;;;18.43;35.39;99603.19;107105;1253;60204;-74
2023/04/24 07:44:57;;;;;;;3.90;2.80;;;;;;;18.44;35.29;99598.20;107421;1254;72773;-75
2023/04/24 07:47:24;;;;;;;4.20;3.70;;;;;;;18.45;35.54;99595.34;107256;1253;71208;-75
2023/04/24 07:49:51;;;;;;;5.40;3.60;;;;;;;18.51;35.91;99593.41;107220;1254;73813;-75
2023/04/24 07:52:18;;;;;;;5.70;3.50;;;;;;;18.58;36.04;99590.66;107259;1252;61507;-75
2023/04/24 07:54:45;;;;;;;7.00;3.80;;;;;;;18.66;36.11;99591.21;108543;1253;59555;-76
2023/04/24 07:57:13;;;;;;;6.30;3.80;;;;;;;18.78;35.92;99591.30;108131;1255;73704;-74
2023/04/24 07:59:40;;;;;;;7.60;3.50;;;;;;;18.84;35.66;99590.86;107104;1253;70002;-75
2023/04/24 08:02:09;;;;;;;6.60;3.10;;;;;;;18.87;35.81;99596.54;107298;1254;73517;-76
2023/04/24 08:08:22;;;;;;;4.30;3.60;;;;;;;19.02;35.33;99599.23;107180;1253;61579;-75
2023/04/24 08:10:50;;;;;;;4.40;3.00;;;;;;;19.11;34.84;99599.92;107255;1252;73848;-75
2023/04/24 08:13:18;;;;;;;4.20;3.50;;;;;;;19.15;34.53;99599.95;107460;1253;71469;-74
2023/04/24 08:15:45;;;;;;;4.20;3.20;;;;;;;19.09;34.68;99594.49;108024;1253;72502;-77
2023/04/24 08:18:13;;;;;;;6.00;3.50;;;;;;;19.07;34.92;99594.93;108082;1254;61336;-77
2023/04/24 08:20:40;;;;;;;3.90;3.40;;;;;;;19.14;34.81;99591.77;108315;1252;61367;-76
2023/04/24 08:23:07;;;;;;;4.00;3.00;;;;;;;19.22;35.00;99591.20;108539;1253;72901;-78
2023/04/24 08:25:35;;;;;;;3.70;3.20;;;;;;;19.34;34.35;99594.05;107693;1257;72285;-76
2023/04/24 08:28:03;;;;;;;5.70;3.10;;;;;;;19.42;33.94;99578.08;107745;1254;72782;-76
2023/04/24 08:30:30;;;;;;;4.40;2.90;;;;;;;19.52;34.25;99580.95;107615;1253;61410;-77
2023/04/24 08:32:57;;;;;;;3.40;2.90;;;;;;;19.64;34.15;99581.88;107863;1252;60486;-77
2023/04/24 08:35:25;;;;;;;4.20;2.90;;;;;;;19.75;34.04;99579.09;107829;1253;73681;-77
2023/04/24 08:37:53;;;;;;;4.10;3.00;;;;;;;19.86;34.15;99568.91;107882;1253;72268;-75
2023/04/24 08:40:22;;;;;;;6.60;3.30;;;;;;;20.03;33.91;99570.98;107818;1253;73562;-78
2023/04/24 08:42:50;;;;;;;5.50;3.00;;;;;;;20.23;33.92;99566.18;107543;1254;61892;-76
2023/04/24 08:45:17;;;;;;;3.60;2.90;;;;;;;20.44;33.42;99567.80;107825;1254;60231;-76
2023/04/24 08:47:45;;;;;;;5.20;3.10;;;;;;;20.63;33.32;99573.92;107765;1257;73540;-75
2023/04/24 08:50:12;;;;;;;3.80;3.40;;;;;;;20.81;32.55;99569.10;107695;1254;71018;-77
2023/04/24 08:52:39;;;;;;;3.80;3.20;;;;;;;20.85;32.30;99566.98;107910;1253;71201;-77
2023/04/24 08:55:06;;;;;;;4.90;2.90;;;;;;;20.83;32.74;99565.30;108713;1258;61313;-78
2023/04/24 08:57:35;;;;;;;3.20;2.70;;;;;;;20.98;32.29;99565.45;109357;1252;61660;-74
2023/04/24 09:00:06;;;;;;;3.40;2.60;;;;;;;21.18;31.81;99563.66;109055;1253;72569;-77
2023/04/24 09:02:43;;;;;;;5.30;2.90;;;;;;;21.41;31.90;99550.95;109221;1253;71092;-77
2023/04/24 09:05:11;;;;;;;5.30;2.70;;;;;;;21.71;31.66;99548.06;109163;1254;73721;-76
2023/04/24 09:07:38;;;;;;;5.00;2.70;;;;;;;21.96;30.86;99547.58;109204;1253;61821;-75
2023/04/24 09:10:06;;;;;;;4.70;2.50;;;;;;;21.98;30.94;99546.36;108965;1253;59368;-77
2023/04/24 09:12:34;;;;;;;5.50;2.80;;;;;;;21.98;31.22;99547.98;108593;1253;73858;-76
2023/04/24 09:15:05;;;;;;;3.10;2.70;;;;;;;21.95;30.67;99553.35;108914;1254;71240;-76
2023/04/24 09:17:32;;;;;;;3.70;2.60;;;;;;;21.79;30.70;99548.67;108698;1253;73420;-76
2023/04/24 09:20:02;;;;;;;3.60;3.00;;;;;;;21.56;30.90;99540.68;108609;1253;59318;-77
2023/04/24 09:22:30;;;;;;;5.40;2.90;;;;;;;21.34;31.13;99549.75;108749;1254;61202;-79
2023/04/24 09:25:06;;;;;;;2.90;2.40;;;;;;;21.17;31.32;99546.64;108781;1253;74628;-75
2023/04/24 09:27:36;;;;;;;3.20;2.90;;;;;;;20.99;31.43;99532.96;109019;1254;68927;-77
2023/04/24 09:30:03;;;;;;;2.90;2.60;;;;;;;20.93;31.66;99533.66;108470;1254;73662;-78
2023/04/24 09:32:31;;;;;;;4.10;2.50;;;;;;;21.21;31.51;99525.41;108392;1254;59089;-76
2023/04/24 09:35:07;;;;;;;3.70;3.10;;;;;;;21.81;31.06;99522.84;108793;1253;61080;-79
2023/04/24 09:37:46;;;;;;;3.60;2.80;;;;;;;22.68;30.67;99523.61;108686;1253;74530;-79
2023/04/24 09:40:18;;;;;;;2.50;2.30;;;;;;;23.74;29.40;99521.17;108908;1253;71611;-78
2023/04/24 09:42:52;;;;;;;3.80;2.70;;;;;;;24.56;27.24;99522.67;108434;1253;73455;-76
2023/04/24 09:45:20;;;;;;;8.10;3.50;;;;;;;25.04;27.27;99516.73;108566;1253;61514;-77
2023/04/24 09:47:47;;;;;;;3.60;2.80;;;;;;;25.47;27.23;99512.84;108814;1253;60222;-76
2023/04/24 09:50:21;;;;;;;3.80;2.80;;;;;;;26.06;26.72;99505.20;108774;1253;74732;-76
2023/04/24 09:52:59;;;;;;;3.90;2.80;;;;;;;26.74;25.82;99511.63;109287;1253;70610;-79
2023/04/24 09:55:27;;;;;;;5.00;3.00;;;;;;;27.14;25.05;99512.65;108962;1253;73763;-77
2023/04/24 09:58:00;;;;;;;2.90;2.60;;;;;;;27.05;24.55;99501.41;108963;1254;61382;-77
2023/04/24 10:00:28;;;;;;;3.50;2.60;;;;;;;27.14;24.96;99507.14;108858;1253;61452;-76
2023/04/24 10:03:02;;;;;;;7.00;2.80;;;;;;;27.37;24.59;99500.77;108692;1256;75302;-75
2023/04/24 10:05:31;;;;;;;3.40;2.60;;;;;;;27.52;24.92;99495.46;109021;1254;70662;-78
2023/04/24 10:08:04;;;;;;;3.90;2.60;;;;;;;27.87;24.49;99497.94;108595;1253;73682;-76
2023/04/24 10:10:31;;;;;;;3.50;3.20;;;;;;;28.06;24.25;99504.02;108792;1254;59428;-75
2023/04/24 10:13:01;;;;;;;4.10;2.80;;;;;;;27.58;24.31;99504.79;108404;1253;61119;-78
2023/04/24 10:15:28;;;;;;;3.50;3.20;;;;;;;26.65;25.00;99493.34;108958;1254;72603;-75
2023/04/24 10:17:55;;;;;;;3.40;2.80;;;;;;;25.81;25.55;99501.34;109307;1252;71083;-79
2023/04/24 10:20:23;;;;;;;3.40;3.10;;;;;;;25.19;25.76;99498.23;109124;1253;71681;-76
2023/04/24 10:22:52;;;;;;;3.00;2.70;;;;;;;24.65;26.12;99492.38;109376;1253;59168;-77
2023/04/24 10:25:23;;;;;;;5.60;3.00;;;;;;;24.29;26.52;99498.61;108690;1252;61220;-76
2023/04/24 10:27:51;;;;;;;7.50;3.00;;;;;;;23.93;27.05;99487.73;108280;1259;73195;-76
2023/04/24 10:30:19;;;;;;;3.30;3.00;;;;;;;23.68;27.41;99491.45;108685;1253;71536;-75
2023/04/24 10:32:46;;;;;;;3.60;2.90;;;;;;;23.56;27.68;99484.37;108827;1254;74984;-78
2023/04/24 10:35:13;;;;;;;3.30;2.80;;;;;;;23.87;27.77;99475.41;108932;1253;61475;-76
2023/04/24 10:37:50;;;;;;;3.20;2.90;;;;;;;24.46;27.53;99475.88;108770;1258;61011;-74
2023/04/24 10:40:18;;;;;;;3.50;3.20;;;;;;;24.91;27.08;99476.84;108882;1253;73105;-76
2023/04/24 10:42:48;;;;;;;7.70;3.40;;;;;;;25.00;27.47;99475.66;109142;1254;71382;-77
2023/04/24 10:45:17;;;;;;;4.00;2.90;;;;;;;25.12;27.42;99473.21;109092;1253;73652;-75
2023/04/24 10:48:01;;;;;;;3.50;2.90;;;;;;;25.15;27.17;99480.02;109258;1253;61418;-78
2023/04/24 10:50:51;;;;;;;7.70;3.00;;;;;;;24.91;27.01;99478.74;108304;1253;61410;-77
2023/04/24 10:53:23;;;;;;;3.50;3.00;;;;;;;24.61;27.43;99481.66;108229;1254;75698;-76
2023/04/24 10:55:51;;;;;;;6.20;3.00;;;;;;;24.53;27.37;99480.27;109294;1252;71198;-77
2023/04/24 10:58:25;;;;;;;3.90;3.30;;;;;;;24.61;27.13;99476.66;109404;1252;73598;-78
2023/04/24 11:00:57;;;;;;;4.40;3.10;;;;;;;24.85;26.93;99473.67;108996;1252;60473;-76
2023/04/24 11:03:27;;;;;;;3.40;2.90;;;;;;;25.10;26.60;99474.37;108974;1254;61014;-78
2023/04/24 11:06:04;;;;;;;3.40;2.90;;;;;;;25.28;26.44;99473.53;109106;1253;75189;-78
2023/04/24 11:08:45;;;;;;;3.10;2.80;;;;;;;25.42;26.24;99470.65;109359;1253;71529;-78
2023/04/24 11:11:16;;;;;;;6.90;3.10;;;;;;;25.48;25.73;99462.70;109342;1254;73698;-77
2023/04/24 11:14:04;;;;;;;6.30;2.30;;;;;;;25.38;26.00;99459.83;108571;1254;61283;-75
2023/04/24 11:16:35;;;;;;;5.20;2.60;;;;;;;25.57;25.85;99464.59;108758;1254;61210;-77
2023/04/24 11:19:11;;;;;;;7.20;2.80;;;;;;;25.96;25.73;99455.71;108182;1253;74498;-75
2023/04/24 11:21:41;;;;;;;3.20;2.90;;;;;;;26.62;25.58;99448.69;108148;1254;71053;-74
2023/04/24 11:24:31;;;;;;;4.80;2.80;;;;;;;27.47;25.38;99450.53;108368;1257;74190;-77
2023/04/24 11:27:04;;;;;;;2.90;2.60;;;;;;;28.46;23.92;99443.95;108557;1254;61414;-77
2023/04/24 11:29:53;;;;;;;3.40;2.60;;;;;;;28.54;23.45;99444.60;108220;1253;60971;-78
2023/04/24 11:32:35;;;;;;;3.10;2.80;;;;;;;28.05;23.99;99447.95;108621;1254;72528;-76
2023/04/24 11:35:37;;;;;;;3.20;2.90;;;;;;;27.72;24.09;99448.62;108982;1256;71290;-77
2023/04/24 11:38:05;;;;;;;5.40;2.90;;;;;;;27.03;24.65;99448.17;108369;1254;73788;-75